sensor_id;sensor_type;location;lat;lon;timestamp;P1;durP1;ratioP1;P2;durP2;ratioP2
56893;SDS011;43392;50.078;13.704;2022-09-09T00:02:19;3.28;;;1.50;;
56893;SDS011;43392;50.078;13.704;2022-09-09T00:04:49;7.88;;;1.88;;
56893;SDS011;43392;50.078;13.704;2022-09-09T00:07:30;3.50;;;1.80;;
56893;SDS011;43392;50.078;13.704;2022-09-09T00:10:13;4.15;;;2.00;;
56893;SDS011;43392;50.078;13.704;2022-09-09T00:12:47;3.83;;;2.00;;
56893;SDS011;43392;50.078;13.704;2022-09-09T00:15:22;5.78;;;2.20;;
56893;SDS011;43392;50.078;13.704;2022-09-09T00:17:52;6.70;;;2.25;;
56893;SDS011;43392;50.078;13.704;2022-09-09T00:20:24;3.42;;;2.05;;
56893;SDS011;43392;50.078;13.704;2022-09-09T00:22:57;5.25;;;2.40;;
56893;SDS011;43392;50.078;13.704;2022-09-09T00:25:32;4.75;;;2.40;;
56893;SDS011;43392;50.078;13.704;2022-09-09T00:28:07;4.57;;;2.33;;
56893;SDS011;43392;50.078;13.704;2022-09-09T00:30:43;6.53;;;2.80;;
56893;SDS011;43392;50.078;13.704;2022-09-09T00:33:13;7.47;;;2.60;;
56893;SDS011;43392;50.078;13.704;2022-09-09T00:35:44;6.45;;;2.60;;
56893;SDS011;43392;50.078;13.704;2022-09-09T00:38:13;6.27;;;2.43;;
56893;SDS011;43392;50.078;13.704;2022-09-09T00:40:45;4.10;;;2.10;;
56893;SDS011;43392;50.078;13.704;2022-09-09T00:43:24;5.03;;;2.35;;
56893;SDS011;43392;50.078;13.704;2022-09-09T00:46:13;6.07;;;2.50;;
56893;SDS011;43392;50.078;13.704;2022-09-09T00:49:00;7.18;;;2.45;;
56893;SDS011;43392;50.078;13.704;2022-09-09T00:51:37;6.85;;;2.42;;
56893;SDS011;43392;50.078;13.704;2022-09-09T00:54:18;5.50;;;2.60;;
56893;SDS011;43392;50.078;13.704;2022-09-09T00:59:28;6.25;;;2.83;;
56893;SDS011;43392;50.078;13.704;2022-09-09T01:02:00;6.85;;;2.63;;
56893;SDS011;43392;50.078;13.704;2022-09-09T01:04:28;8.60;;;3.33;;
56893;SDS011;43392;50.078;13.704;2022-09-09T01:07:02;7.43;;;2.85;;
56893;SDS011;43392;50.078;13.704;2022-09-09T01:09:38;5.63;;;2.90;;
56893;SDS011;43392;50.078;13.704;2022-09-09T01:12:23;5.30;;;2.85;;
56893;SDS011;43392;50.078;13.704;2022-09-09T01:14:54;6.70;;;3.25;;
56893;SDS011;43392;50.078;13.704;2022-09-09T01:17:29;5.85;;;3.00;;
56893;SDS011;43392;50.078;13.704;2022-09-09T01:20:02;4.97;;;2.90;;
56893;SDS011;43392;50.078;13.704;2022-09-09T01:22:35;5.63;;;2.53;;
56893;SDS011;43392;50.078;13.704;2022-09-09T01:25:56;7.38;;;3.35;;
56893;SDS011;43392;50.078;13.704;2022-09-09T01:28:36;5.85;;;3.58;;
56893;SDS011;43392;50.078;13.704;2022-09-09T01:31:04;6.35;;;3.20;;
56893;SDS011;43392;50.078;13.704;2022-09-09T01:33:33;7.50;;;4.50;;
56893;SDS011;43392;50.078;13.704;2022-09-09T01:36:00;7.95;;;4.72;;
56893;SDS011;43392;50.078;13.704;2022-09-09T01:38:32;8.52;;;4.85;;
56893;SDS011;43392;50.078;13.704;2022-09-09T01:41:02;7.43;;;3.72;;
56893;SDS011;43392;50.078;13.704;2022-09-09T01:43:29;7.70;;;3.53;;
56893;SDS011;43392;50.078;13.704;2022-09-09T01:45:58;5.97;;;3.30;;
56893;SDS011;43392;50.078;13.704;2022-09-09T01:48:27;6.10;;;3.90;;
56893;SDS011;43392;50.078;13.704;2022-09-09T01:50:54;8.07;;;3.83;;
56893;SDS011;43392;50.078;13.704;2022-09-09T01:53:22;5.97;;;3.55;;
56893;SDS011;43392;50.078;13.704;2022-09-09T01:55:52;6.50;;;3.33;;
56893;SDS011;43392;50.078;13.704;2022-09-09T01:58:31;6.68;;;3.50;;
56893;SDS011;43392;50.078;13.704;2022-09-09T02:01:05;8.65;;;4.93;;
56893;SDS011;43392;50.078;13.704;2022-09-09T02:03:39;9.30;;;4.93;;
56893;SDS011;43392;50.078;13.704;2022-09-09T02:06:13;9.32;;;5.47;;
56893;SDS011;43392;50.078;13.704;2022-09-09T02:08:47;9.95;;;5.45;;
56893;SDS011;43392;50.078;13.704;2022-09-09T02:11:16;8.77;;;5.25;;
56893;SDS011;43392;50.078;13.704;2022-09-09T02:13:46;11.63;;;6.18;;
56893;SDS011;43392;50.078;13.704;2022-09-09T02:16:16;9.23;;;6.45;;
56893;SDS011;43392;50.078;13.704;2022-09-09T02:18:50;8.10;;;5.40;;
56893;SDS011;43392;50.078;13.704;2022-09-09T02:21:21;8.48;;;5.30;;
56893;SDS011;43392;50.078;13.704;2022-09-09T02:23:49;9.75;;;6.03;;
56893;SDS011;43392;50.078;13.704;2022-09-09T02:26:18;7.50;;;5.20;;
56893;SDS011;43392;50.078;13.704;2022-09-09T02:28:50;8.10;;;5.22;;
56893;SDS011;43392;50.078;13.704;2022-09-09T02:31:19;9.57;;;6.07;;
56893;SDS011;43392;50.078;13.704;2022-09-09T02:33:49;8.40;;;5.45;;
56893;SDS011;43392;50.078;13.704;2022-09-09T02:36:19;8.85;;;5.32;;
56893;SDS011;43392;50.078;13.704;2022-09-09T02:38:49;6.57;;;4.20;;
56893;SDS011;43392;50.078;13.704;2022-09-09T02:41:19;7.90;;;4.68;;
56893;SDS011;43392;50.078;13.704;2022-09-09T02:44:02;9.00;;;5.10;;
56893;SDS011;43392;50.078;13.704;2022-09-09T02:46:35;7.65;;;4.35;;
56893;SDS011;43392;50.078;13.704;2022-09-09T02:49:11;7.07;;;4.40;;
56893;SDS011;43392;50.078;13.704;2022-09-09T02:51:47;7.47;;;4.45;;
56893;SDS011;43392;50.078;13.704;2022-09-09T02:54:21;6.10;;;4.32;;
56893;SDS011;43392;50.078;13.704;2022-09-09T02:56:55;9.57;;;5.22;;
56893;SDS011;43392;50.078;13.704;2022-09-09T02:59:29;7.22;;;4.55;;
56893;SDS011;43392;50.078;13.704;2022-09-09T03:01:56;8.75;;;5.43;;
56893;SDS011;43392;50.078;13.704;2022-09-09T03:04:23;11.60;;;5.82;;
56893;SDS011;43392;50.078;13.704;2022-09-09T03:06:50;10.32;;;6.10;;
56893;SDS011;43392;50.078;13.704;2022-09-09T03:09:17;11.27;;;6.05;;
56893;SDS011;43392;50.078;13.704;2022-09-09T03:11:43;9.02;;;6.30;;
56893;SDS011;43392;50.078;13.704;2022-09-09T03:14:10;11.18;;;7.18;;
56893;SDS011;43392;50.078;13.704;2022-09-09T03:16:38;10.95;;;6.95;;
56893;SDS011;43392;50.078;13.704;2022-09-09T03:19:04;12.23;;;6.95;;
56893;SDS011;43392;50.078;13.704;2022-09-09T03:21:32;10.85;;;7.15;;
56893;SDS011;43392;50.078;13.704;2022-09-09T03:23:58;11.73;;;7.40;;
56893;SDS011;43392;50.078;13.704;2022-09-09T03:26:28;11.77;;;7.33;;
56893;SDS011;43392;50.078;13.704;2022-09-09T03:28:55;13.88;;;8.52;;
56893;SDS011;43392;50.078;13.704;2022-09-09T03:31:21;14.20;;;9.27;;
56893;SDS011;43392;50.078;13.704;2022-09-09T03:33:50;15.88;;;9.40;;
56893;SDS011;43392;50.078;13.704;2022-09-09T03:36:16;13.80;;;8.93;;
56893;SDS011;43392;50.078;13.704;2022-09-09T03:38:43;13.90;;;8.50;;
56893;SDS011;43392;50.078;13.704;2022-09-09T03:41:10;12.43;;;7.88;;
56893;SDS011;43392;50.078;13.704;2022-09-09T03:43:37;10.48;;;7.68;;
56893;SDS011;43392;50.078;13.704;2022-09-09T03:46:03;12.90;;;7.97;;
56893;SDS011;43392;50.078;13.704;2022-09-09T03:48:30;12.13;;;8.35;;
56893;SDS011;43392;50.078;13.704;2022-09-09T03:50:58;11.25;;;7.68;;
56893;SDS011;43392;50.078;13.704;2022-09-09T03:53:26;13.90;;;7.82;;
56893;SDS011;43392;50.078;13.704;2022-09-09T03:55:54;12.60;;;8.00;;
56893;SDS011;43392;50.078;13.704;2022-09-09T04:00:55;14.07;;;7.65;;
56893;SDS011;43392;50.078;13.704;2022-09-09T04:03:23;10.70;;;7.15;;
56893;SDS011;43392;50.078;13.704;2022-09-09T04:05:50;10.98;;;7.25;;
56893;SDS011;43392;50.078;13.704;2022-09-09T04:08:19;12.65;;;7.82;;
56893;SDS011;43392;50.078;13.704;2022-09-09T04:10:46;10.73;;;7.22;;
56893;SDS011;43392;50.078;13.704;2022-09-09T04:13:13;13.38;;;8.10;;
56893;SDS011;43392;50.078;13.704;2022-09-09T04:15:42;15.43;;;8.82;;
56893;SDS011;43392;50.078;13.704;2022-09-09T04:18:10;13.13;;;8.45;;
56893;SDS011;43392;50.078;13.704;2022-09-09T04:20:37;13.68;;;9.88;;
56893;SDS011;43392;50.078;13.704;2022-09-09T04:23:04;14.45;;;9.20;;
56893;SDS011;43392;50.078;13.704;2022-09-09T04:25:32;15.25;;;10.60;;
56893;SDS011;43392;50.078;13.704;2022-09-09T04:27:59;13.60;;;9.18;;
56893;SDS011;43392;50.078;13.704;2022-09-09T04:30:25;14.85;;;9.02;;
56893;SDS011;43392;50.078;13.704;2022-09-09T04:32:52;17.70;;;10.18;;
56893;SDS011;43392;50.078;13.704;2022-09-09T04:35:19;13.98;;;9.40;;
56893;SDS011;43392;50.078;13.704;2022-09-09T04:37:45;14.80;;;9.13;;
56893;SDS011;43392;50.078;13.704;2022-09-09T04:40:12;14.60;;;10.35;;
56893;SDS011;43392;50.078;13.704;2022-09-09T04:42:41;16.70;;;9.75;;
56893;SDS011;43392;50.078;13.704;2022-09-09T04:45:09;13.88;;;9.07;;
56893;SDS011;43392;50.078;13.704;2022-09-09T04:47:38;15.38;;;9.73;;
56893;SDS011;43392;50.078;13.704;2022-09-09T04:50:05;15.50;;;9.32;;
56893;SDS011;43392;50.078;13.704;2022-09-09T04:52:33;13.77;;;9.93;;
56893;SDS011;43392;50.078;13.704;2022-09-09T04:55:00;15.10;;;9.63;;
56893;SDS011;43392;50.078;13.704;2022-09-09T04:57:26;17.58;;;10.77;;
56893;SDS011;43392;50.078;13.704;2022-09-09T04:59:55;16.35;;;10.38;;
56893;SDS011;43392;50.078;13.704;2022-09-09T05:02:21;16.83;;;11.48;;
56893;SDS011;43392;50.078;13.704;2022-09-09T05:04:48;15.88;;;10.60;;
56893;SDS011;43392;50.078;13.704;2022-09-09T05:07:15;17.27;;;10.60;;
56893;SDS011;43392;50.078;13.704;2022-09-09T05:09:42;18.75;;;10.90;;
56893;SDS011;43392;50.078;13.704;2022-09-09T05:12:09;15.85;;;10.52;;
56893;SDS011;43392;50.078;13.704;2022-09-09T05:14:36;16.02;;;10.32;;
56893;SDS011;43392;50.078;13.704;2022-09-09T05:17:04;14.20;;;9.82;;
56893;SDS011;43392;50.078;13.704;2022-09-09T05:19:31;15.25;;;9.15;;
56893;SDS011;43392;50.078;13.704;2022-09-09T05:21:57;14.68;;;9.57;;
56893;SDS011;43392;50.078;13.704;2022-09-09T05:24:24;14.43;;;9.10;;
56893;SDS011;43392;50.078;13.704;2022-09-09T05:26:50;14.27;;;9.00;;
56893;SDS011;43392;50.078;13.704;2022-09-09T05:29:17;15.13;;;9.07;;
56893;SDS011;43392;50.078;13.704;2022-09-09T05:31:44;13.90;;;8.52;;
56893;SDS011;43392;50.078;13.704;2022-09-09T05:34:13;15.15;;;9.05;;
56893;SDS011;43392;50.078;13.704;2022-09-09T05:36:40;15.18;;;9.52;;
56893;SDS011;43392;50.078;13.704;2022-09-09T05:39:06;14.70;;;8.85;;
56893;SDS011;43392;50.078;13.704;2022-09-09T05:41:33;12.52;;;8.63;;
56893;SDS011;43392;50.078;13.704;2022-09-09T05:44:00;13.35;;;8.77;;
56893;SDS011;43392;50.078;13.704;2022-09-09T05:46:28;14.07;;;8.45;;
56893;SDS011;43392;50.078;13.704;2022-09-09T05:48:55;11.63;;;7.35;;
56893;SDS011;43392;50.078;13.704;2022-09-09T05:51:25;11.00;;;5.93;;
56893;SDS011;43392;50.078;13.704;2022-09-09T05:53:55;9.98;;;5.40;;
56893;SDS011;43392;50.078;13.704;2022-09-09T05:56:24;11.25;;;5.95;;
56893;SDS011;43392;50.078;13.704;2022-09-09T05:58:51;8.57;;;5.43;;
56893;SDS011;43392;50.078;13.704;2022-09-09T06:01:19;9.63;;;5.13;;
56893;SDS011;43392;50.078;13.704;2022-09-09T06:03:48;11.57;;;4.93;;
56893;SDS011;43392;50.078;13.704;2022-09-09T06:06:16;10.68;;;4.95;;
56893;SDS011;43392;50.078;13.704;2022-09-09T06:08:47;10.00;;;5.50;;
56893;SDS011;43392;50.078;13.704;2022-09-09T06:11:16;9.52;;;4.65;;
56893;SDS011;43392;50.078;13.704;2022-09-09T06:13:44;10.63;;;5.25;;
56893;SDS011;43392;50.078;13.704;2022-09-09T06:16:13;9.30;;;5.00;;
56893;SDS011;43392;50.078;13.704;2022-09-09T06:18:41;8.35;;;4.28;;
56893;SDS011;43392;50.078;13.704;2022-09-09T06:21:09;10.23;;;4.93;;
56893;SDS011;43392;50.078;13.704;2022-09-09T06:23:40;9.45;;;5.22;;
56893;SDS011;43392;50.078;13.704;2022-09-09T06:26:10;9.73;;;5.32;;
56893;SDS011;43392;50.078;13.704;2022-09-09T06:28:38;9.75;;;5.93;;
56893;SDS011;43392;50.078;13.704;2022-09-09T06:31:05;9.93;;;4.75;;
56893;SDS011;43392;50.078;13.704;2022-09-09T06:33:34;7.10;;;4.60;;
56893;SDS011;43392;50.078;13.704;2022-09-09T06:36:04;11.20;;;5.88;;
56893;SDS011;43392;50.078;13.704;2022-09-09T06:38:31;11.30;;;6.57;;
56893;SDS011;43392;50.078;13.704;2022-09-09T06:40:59;9.52;;;5.05;;
56893;SDS011;43392;50.078;13.704;2022-09-09T06:43:28;14.07;;;5.60;;
56893;SDS011;43392;50.078;13.704;2022-09-09T06:45:57;9.45;;;6.07;;
56893;SDS011;43392;50.078;13.704;2022-09-09T06:48:24;14.80;;;9.75;;
56893;SDS011;43392;50.078;13.704;2022-09-09T06:50:59;19.92;;;13.07;;
56893;SDS011;43392;50.078;13.704;2022-09-09T06:53:26;17.13;;;10.13;;
56893;SDS011;43392;50.078;13.704;2022-09-09T06:55:53;13.57;;;8.18;;
56893;SDS011;43392;50.078;13.704;2022-09-09T06:58:20;20.42;;;12.98;;
56893;SDS011;43392;50.078;13.704;2022-09-09T07:00:49;17.63;;;10.40;;
56893;SDS011;43392;50.078;13.704;2022-09-09T07:03:16;12.70;;;7.82;;
56893;SDS011;43392;50.078;13.704;2022-09-09T07:05:42;10.50;;;6.55;;
56893;SDS011;43392;50.078;13.704;2022-09-09T07:08:10;10.98;;;5.90;;
56893;SDS011;43392;50.078;13.704;2022-09-09T07:10:36;9.07;;;5.63;;
56893;SDS011;43392;50.078;13.704;2022-09-09T07:13:03;9.02;;;5.70;;
56893;SDS011;43392;50.078;13.704;2022-09-09T07:15:30;12.02;;;5.82;;
56893;SDS011;43392;50.078;13.704;2022-09-09T07:18:01;9.05;;;5.70;;
56893;SDS011;43392;50.078;13.704;2022-09-09T07:22:55;11.23;;;6.43;;
56893;SDS011;43392;50.078;13.704;2022-09-09T07:25:22;9.02;;;5.95;;
56893;SDS011;43392;50.078;13.704;2022-09-09T07:27:49;13.23;;;6.20;;
56893;SDS011;43392;50.078;13.704;2022-09-09T07:30:16;9.93;;;5.22;;
56893;SDS011;43392;50.078;13.704;2022-09-09T07:32:44;8.43;;;4.90;;
56893;SDS011;43392;50.078;13.704;2022-09-09T07:35:12;8.05;;;4.03;;
56893;SDS011;43392;50.078;13.704;2022-09-09T07:37:39;10.10;;;5.82;;
56893;SDS011;43392;50.078;13.704;2022-09-09T07:40:06;7.47;;;4.10;;
56893;SDS011;43392;50.078;13.704;2022-09-09T07:42:33;10.70;;;5.07;;
56893;SDS011;43392;50.078;13.704;2022-09-09T07:45:00;10.80;;;5.10;;
56893;SDS011;43392;50.078;13.704;2022-09-09T07:47:27;9.48;;;4.65;;
56893;SDS011;43392;50.078;13.704;2022-09-09T07:49:53;10.55;;;4.95;;
56893;SDS011;43392;50.078;13.704;2022-09-09T07:52:22;7.90;;;5.00;;
56893;SDS011;43392;50.078;13.704;2022-09-09T07:54:48;9.70;;;5.10;;
56893;SDS011;43392;50.078;13.704;2022-09-09T07:57:15;9.10;;;4.57;;
56893;SDS011;43392;50.078;13.704;2022-09-09T07:59:42;9.85;;;4.28;;
56893;SDS011;43392;50.078;13.704;2022-09-09T08:02:08;7.57;;;4.47;;
56893;SDS011;43392;50.078;13.704;2022-09-09T08:04:36;6.90;;;3.65;;
56893;SDS011;43392;50.078;13.704;2022-09-09T08:07:02;7.82;;;3.53;;
56893;SDS011;43392;50.078;13.704;2022-09-09T08:09:30;5.70;;;2.70;;
56893;SDS011;43392;50.078;13.704;2022-09-09T08:11:58;7.70;;;2.90;;
56893;SDS011;43392;50.078;13.704;2022-09-09T08:14:26;5.55;;;2.78;;
56893;SDS011;43392;50.078;13.704;2022-09-09T08:16:52;7.22;;;3.00;;
56893;SDS011;43392;50.078;13.704;2022-09-09T08:19:19;7.07;;;2.95;;
56893;SDS011;43392;50.078;13.704;2022-09-09T08:21:46;5.82;;;2.83;;
56893;SDS011;43392;50.078;13.704;2022-09-09T08:24:14;8.18;;;2.95;;
56893;SDS011;43392;50.078;13.704;2022-09-09T08:26:44;4.45;;;2.25;;
56893;SDS011;43392;50.078;13.704;2022-09-09T08:29:13;8.10;;;2.60;;
56893;SDS011;43392;50.078;13.704;2022-09-09T08:31:40;6.30;;;2.70;;
56893;SDS011;43392;50.078;13.704;2022-09-09T08:34:08;5.97;;;2.45;;
56893;SDS011;43392;50.078;13.704;2022-09-09T08:36:37;5.45;;;2.28;;
56893;SDS011;43392;50.078;13.704;2022-09-09T08:39:06;4.68;;;2.33;;
56893;SDS011;43392;50.078;13.704;2022-09-09T08:41:39;4.95;;;2.25;;
56893;SDS011;43392;50.078;13.704;2022-09-09T08:44:19;4.22;;;1.90;;
56893;SDS011;43392;50.078;13.704;2022-09-09T08:46:54;3.60;;;2.03;;
56893;SDS011;43392;50.078;13.704;2022-09-09T08:49:34;5.35;;;2.15;;
56893;SDS011;43392;50.078;13.704;2022-09-09T08:52:12;4.32;;;2.22;;
56893;SDS011;43392;50.078;13.704;2022-09-09T08:54:44;7.43;;;1.85;;
56893;SDS011;43392;50.078;13.704;2022-09-09T08:57:14;5.57;;;2.30;;
56893;SDS011;43392;50.078;13.704;2022-09-09T08:59:46;5.63;;;2.08;;
56893;SDS011;43392;50.078;13.704;2022-09-09T09:02:15;5.28;;;2.20;;
56893;SDS011;43392;50.078;13.704;2022-09-09T09:04:51;6.28;;;1.88;;
56893;SDS011;43392;50.078;13.704;2022-09-09T09:07:28;5.68;;;1.60;;
56893;SDS011;43392;50.078;13.704;2022-09-09T09:10:02;4.35;;;1.90;;
56893;SDS011;43392;50.078;13.704;2022-09-09T09:12:37;7.38;;;2.40;;
56893;SDS011;43392;50.078;13.704;2022-09-09T09:15:10;3.83;;;1.80;;
56893;SDS011;43392;50.078;13.704;2022-09-09T09:17:41;3.75;;;1.80;;
56893;SDS011;43392;50.078;13.704;2022-09-09T09:20:11;5.38;;;1.63;;
56893;SDS011;43392;50.078;13.704;2022-09-09T09:22:42;5.07;;;1.83;;
56893;SDS011;43392;50.078;13.704;2022-09-09T09:25:15;5.30;;;1.50;;
56893;SDS011;43392;50.078;13.704;2022-09-09T09:27:46;4.35;;;1.98;;
56893;SDS011;43392;50.078;13.704;2022-09-09T09:30:20;4.68;;;1.58;;
56893;SDS011;43392;50.078;13.704;2022-09-09T09:32:52;3.92;;;1.63;;
56893;SDS011;43392;50.078;13.704;2022-09-09T09:35:22;4.05;;;1.63;;
56893;SDS011;43392;50.078;13.704;2022-09-09T09:37:49;9.80;;;1.73;;
56893;SDS011;43392;50.078;13.704;2022-09-09T09:40:16;4.68;;;1.70;;
56893;SDS011;43392;50.078;13.704;2022-09-09T09:42:53;4.50;;;1.73;;
56893;SDS011;43392;50.078;13.704;2022-09-09T09:45:32;2.80;;;1.40;;
56893;SDS011;43392;50.078;13.704;2022-09-09T09:48:00;4.07;;;1.63;;
56893;SDS011;43392;50.078;13.704;2022-09-09T09:50:28;3.72;;;1.48;;
56893;SDS011;43392;50.078;13.704;2022-09-09T09:52:56;2.88;;;1.50;;
56893;SDS011;43392;50.078;13.704;2022-09-09T09:55:25;5.10;;;1.27;;
56893;SDS011;43392;50.078;13.704;2022-09-09T09:57:53;4.55;;;1.60;;
56893;SDS011;43392;50.078;13.704;2022-09-09T10:00:26;3.75;;;1.67;;
56893;SDS011;43392;50.078;13.704;2022-09-09T10:02:53;3.83;;;1.27;;
56893;SDS011;43392;50.078;13.704;2022-09-09T10:05:20;4.32;;;1.55;;
56893;SDS011;43392;50.078;13.704;2022-09-09T10:08:00;6.97;;;1.38;;
56893;SDS011;43392;50.078;13.704;2022-09-09T10:10:31;2.88;;;1.20;;
56893;SDS011;43392;50.078;13.704;2022-09-09T10:13:09;3.85;;;1.40;;
56893;SDS011;43392;50.078;13.704;2022-09-09T10:15:44;3.88;;;1.67;;
56893;SDS011;43392;50.078;13.704;2022-09-09T10:18:22;5.80;;;1.60;;
56893;SDS011;43392;50.078;13.704;2022-09-09T10:21:03;3.25;;;1.60;;
56893;SDS011;43392;50.078;13.704;2022-09-09T10:23:41;4.70;;;1.58;;
56893;SDS011;43392;50.078;13.704;2022-09-09T10:26:26;3.17;;;1.40;;
56893;SDS011;43392;50.078;13.704;2022-09-09T10:29:07;5.90;;;1.65;;
56893;SDS011;43392;50.078;13.704;2022-09-09T10:31:48;5.82;;;1.20;;
56893;SDS011;43392;50.078;13.704;2022-09-09T10:34:31;5.28;;;1.10;;
56893;SDS011;43392;50.078;13.704;2022-09-09T10:37:15;2.97;;;1.05;;
56893;SDS011;43392;50.078;13.704;2022-09-09T10:39:53;5.97;;;1.40;;
56893;SDS011;43392;50.078;13.704;2022-09-09T10:42:27;8.10;;;1.35;;
56893;SDS011;43392;50.078;13.704;2022-09-09T10:45:02;3.53;;;1.40;;
56893;SDS011;43392;50.078;13.704;2022-09-09T10:50:39;6.72;;;1.70;;
56893;SDS011;43392;50.078;13.704;2022-09-09T10:53:13;6.45;;;1.67;;
56893;SDS011;43392;50.078;13.704;2022-09-09T10:55:48;7.65;;;1.83;;
56893;SDS011;43392;50.078;13.704;2022-09-09T10:58:20;7.70;;;1.30;;
56893;SDS011;43392;50.078;13.704;2022-09-09T11:00:54;5.38;;;1.50;;
56893;SDS011;43392;50.078;13.704;2022-09-09T11:03:28;7.13;;;1.52;;
56893;SDS011;43392;50.078;13.704;2022-09-09T11:05:56;8.23;;;1.70;;
56893;SDS011;43392;50.078;13.704;2022-09-09T11:08:26;6.38;;;1.63;;
56893;SDS011;43392;50.078;13.704;2022-09-09T11:10:58;8.20;;;3.65;;
56893;SDS011;43392;50.078;13.704;2022-09-09T11:13:30;12.00;;;2.35;;
56893;SDS011;43392;50.078;13.704;2022-09-09T11:16:12;7.65;;;1.70;;
56893;SDS011;43392;50.078;13.704;2022-09-09T11:18:47;7.88;;;2.20;;
56893;SDS011;43392;50.078;13.704;2022-09-09T11:21:16;10.50;;;5.82;;
56893;SDS011;43392;50.078;13.704;2022-09-09T11:23:49;13.52;;;4.80;;
56893;SDS011;43392;50.078;13.704;2022-09-09T11:26:23;11.25;;;4.55;;
56893;SDS011;43392;50.078;13.704;2022-09-09T11:29:01;13.85;;;4.22;;
56893;SDS011;43392;50.078;13.704;2022-09-09T11:31:43;4.75;;;1.38;;
56893;SDS011;43392;50.078;13.704;2022-09-09T11:34:18;14.38;;;7.95;;
56893;SDS011;43392;50.078;13.704;2022-09-09T11:36:56;5.32;;;2.42;;
56893;SDS011;43392;50.078;13.704;2022-09-09T11:39:42;17.25;;;10.32;;
56893;SDS011;43392;50.078;13.704;2022-09-09T11:42:20;16.13;;;10.65;;
56893;SDS011;43392;50.078;13.704;2022-09-09T11:44:48;8.15;;;5.05;;
56893;SDS011;43392;50.078;13.704;2022-09-09T11:47:19;10.65;;;5.90;;
56893;SDS011;43392;50.078;13.704;2022-09-09T11:49:49;8.93;;;4.57;;
56893;SDS011;43392;50.078;13.704;2022-09-09T11:52:20;8.23;;;3.97;;
56893;SDS011;43392;50.078;13.704;2022-09-09T11:54:50;6.65;;;2.75;;
56893;SDS011;43392;50.078;13.704;2022-09-09T11:57:22;6.10;;;1.70;;
56893;SDS011;43392;50.078;13.704;2022-09-09T11:59:53;2.35;;;1.02;;
56893;SDS011;43392;50.078;13.704;2022-09-09T12:02:23;3.03;;;1.10;;
56893;SDS011;43392;50.078;13.704;2022-09-09T12:04:55;4.85;;;1.95;;
56893;SDS011;43392;50.078;13.704;2022-09-09T12:07:27;6.38;;;2.40;;
56893;SDS011;43392;50.078;13.704;2022-09-09T12:09:59;5.65;;;1.98;;
56893;SDS011;43392;50.078;13.704;2022-09-09T12:12:30;5.57;;;1.50;;
56893;SDS011;43392;50.078;13.704;2022-09-09T12:15:00;4.05;;;1.48;;
56893;SDS011;43392;50.078;13.704;2022-09-09T12:17:31;6.97;;;1.50;;
56893;SDS011;43392;50.078;13.704;2022-09-09T12:20:08;6.35;;;1.50;;
56893;SDS011;43392;50.078;13.704;2022-09-09T12:22:49;6.18;;;1.60;;
56893;SDS011;43392;50.078;13.704;2022-09-09T12:25:24;4.55;;;1.60;;
56893;SDS011;43392;50.078;13.704;2022-09-09T12:28:00;5.07;;;1.80;;
56893;SDS011;43392;50.078;13.704;2022-09-09T12:30:31;7.75;;;1.70;;
56893;SDS011;43392;50.078;13.704;2022-09-09T12:33:06;3.50;;;1.58;;
56893;SDS011;43392;50.078;13.704;2022-09-09T12:35:36;6.55;;;1.80;;
56893;SDS011;43392;50.078;13.704;2022-09-09T12:38:04;7.20;;;1.73;;
56893;SDS011;43392;50.078;13.704;2022-09-09T12:40:36;4.43;;;1.48;;
56893;SDS011;43392;50.078;13.704;2022-09-09T12:43:15;5.35;;;1.67;;
56893;SDS011;43392;50.078;13.704;2022-09-09T12:45:43;4.65;;;1.85;;
56893;SDS011;43392;50.078;13.704;2022-09-09T12:48:12;6.68;;;1.50;;
56893;SDS011;43392;50.078;13.704;2022-09-09T12:50:43;2.53;;;1.40;;
56893;SDS011;43392;50.078;13.704;2022-09-09T12:53:12;6.82;;;1.45;;
56893;SDS011;43392;50.078;13.704;2022-09-09T12:55:48;4.68;;;1.60;;
56893;SDS011;43392;50.078;13.704;2022-09-09T12:58:17;4.57;;;1.40;;
56893;SDS011;43392;50.078;13.704;2022-09-09T13:00:48;3.40;;;1.20;;
56893;SDS011;43392;50.078;13.704;2022-09-09T13:03:19;3.83;;;1.40;;
56893;SDS011;43392;50.078;13.704;2022-09-09T13:05:46;4.43;;;1.17;;
56893;SDS011;43392;50.078;13.704;2022-09-09T13:08:14;2.55;;;1.25;;
56893;SDS011;43392;50.078;13.704;2022-09-09T13:10:46;5.30;;;1.35;;
56893;SDS011;43392;50.078;13.704;2022-09-09T13:13:14;3.53;;;1.33;;
56893;SDS011;43392;50.078;13.704;2022-09-09T13:15:48;2.63;;;1.40;;
56893;SDS011;43392;50.078;13.704;2022-09-09T13:18:19;3.35;;;1.65;;
56893;SDS011;43392;50.078;13.704;2022-09-09T13:20:49;3.03;;;1.17;;
56893;SDS011;43392;50.078;13.704;2022-09-09T13:23:16;2.72;;;1.20;;
56893;SDS011;43392;50.078;13.704;2022-09-09T13:25:52;5.18;;;1.70;;
56893;SDS011;43392;50.078;13.704;2022-09-09T13:28:20;3.28;;;1.30;;
56893;SDS011;43392;50.078;13.704;2022-09-09T13:30:55;4.57;;;1.20;;
56893;SDS011;43392;50.078;13.704;2022-09-09T13:33:30;3.17;;;1.20;;
56893;SDS011;43392;50.078;13.704;2022-09-09T13:36:02;3.22;;;1.30;;
56893;SDS011;43392;50.078;13.704;2022-09-09T13:38:32;5.38;;;1.30;;
56893;SDS011;43392;50.078;13.704;2022-09-09T13:41:00;5.20;;;1.38;;
56893;SDS011;43392;50.078;13.704;2022-09-09T13:43:29;4.70;;;1.20;;
56893;SDS011;43392;50.078;13.704;2022-09-09T13:46:00;3.78;;;1.17;;
56893;SDS011;43392;50.078;13.704;2022-09-09T13:48:30;3.00;;;1.15;;
56893;SDS011;43392;50.078;13.704;2022-09-09T13:50:57;3.17;;;1.15;;
56893;SDS011;43392;50.078;13.704;2022-09-09T13:53:26;4.38;;;1.27;;
56893;SDS011;43392;50.078;13.704;2022-09-09T13:55:53;5.45;;;1.25;;
56893;SDS011;43392;50.078;13.704;2022-09-09T13:58:21;6.18;;;1.35;;
56893;SDS011;43392;50.078;13.704;2022-09-09T14:00:50;2.78;;;1.20;;
56893;SDS011;43392;50.078;13.704;2022-09-09T14:03:17;4.93;;;1.30;;
56893;SDS011;43392;50.078;13.704;2022-09-09T14:05:45;4.15;;;1.30;;
56893;SDS011;43392;50.078;13.704;2022-09-09T14:08:15;5.07;;;1.17;;
56893;SDS011;43392;50.078;13.704;2022-09-09T14:10:47;2.25;;;1.10;;
56893;SDS011;43392;50.078;13.704;2022-09-09T14:13:14;4.38;;;1.45;;
56893;SDS011;43392;50.078;13.704;2022-09-09T14:15:41;5.03;;;1.27;;
56893;SDS011;43392;50.078;13.704;2022-09-09T14:18:08;1.75;;;0.93;;
56893;SDS011;43392;50.078;13.704;2022-09-09T14:20:37;1.65;;;0.90;;
56893;SDS011;43392;50.078;13.704;2022-09-09T14:23:05;4.25;;;1.17;;
56893;SDS011;43392;50.078;13.704;2022-09-09T14:25:32;2.33;;;0.85;;
56893;SDS011;43392;50.078;13.704;2022-09-09T14:27:58;2.50;;;1.02;;
56893;SDS011;43392;50.078;13.704;2022-09-09T14:30:25;4.07;;;1.05;;
56893;SDS011;43392;50.078;13.704;2022-09-09T14:32:52;5.43;;;3.03;;
56893;SDS011;43392;50.078;13.704;2022-09-09T14:35:18;2.13;;;1.02;;
56893;SDS011;43392;50.078;13.704;2022-09-09T14:37:45;2.67;;;1.10;;
56893;SDS011;43392;50.078;13.704;2022-09-09T14:40:13;4.70;;;1.13;;
56893;SDS011;43392;50.078;13.704;2022-09-09T14:42:41;2.53;;;0.80;;
56893;SDS011;43392;50.078;13.704;2022-09-09T14:45:08;3.08;;;0.90;;
56893;SDS011;43392;50.078;13.704;2022-09-09T14:47:35;3.55;;;1.08;;
56893;SDS011;43392;50.078;13.704;2022-09-09T14:50:03;2.40;;;0.80;;
56893;SDS011;43392;50.078;13.704;2022-09-09T14:52:31;4.00;;;1.10;;
56893;SDS011;43392;50.078;13.704;2022-09-09T14:54:58;3.22;;;0.82;;
56893;SDS011;43392;50.078;13.704;2022-09-09T14:57:26;1.80;;;0.80;;
56893;SDS011;43392;50.078;13.704;2022-09-09T14:59:53;4.18;;;1.00;;
56893;SDS011;43392;50.078;13.704;2022-09-09T15:02:19;2.10;;;0.98;;